createdAt,value
2019-02-21T00:02:16.238Z,21.77
2019-02-21T00:04:45.002Z,30.00
2019-02-21T00:07:13.509Z,28.00
2019-02-21T00:09:41.960Z,30.50
2019-02-21T00:12:10.415Z,23.20
2019-02-21T00:14:38.905Z,28.40
2019-02-21T00:17:07.386Z,48.23
2019-02-21T00:19:35.849Z,28.70
2019-02-21T00:22:04.346Z,28.47
2019-02-21T00:24:32.800Z,38.37
2019-02-21T00:27:01.264Z,39.77
2019-02-21T00:29:29.772Z,24.03
2019-02-21T00:31:58.221Z,29.23
2019-02-21T00:34:26.693Z,35.83
2019-02-21T00:36:55.176Z,35.27
2019-02-21T00:39:23.628Z,29.77
2019-02-21T00:41:52.087Z,24.73
2019-02-21T00:44:20.583Z,27.77
2019-02-21T00:46:49.054Z,31.70
2019-02-21T00:49:17.523Z,44.17
2019-02-21T00:51:46.040Z,31.20
2019-02-21T00:54:14.506Z,26.63
2019-02-21T00:56:42.966Z,26.10
2019-02-21T00:59:11.455Z,23.90
2019-02-21T01:01:39.911Z,32.07
2019-02-21T01:04:08.367Z,34.17
2019-02-21T01:06:38.000Z,30.50
2019-02-21T01:09:06.468Z,32.43
2019-02-21T01:11:34.935Z,33.43
2019-02-21T01:14:03.449Z,35.43
2019-02-21T01:16:31.898Z,37.37
2019-02-21T01:19:00.371Z,37.33
2019-02-21T01:21:28.880Z,30.87
2019-02-21T01:23:57.339Z,35.57
2019-02-21T01:26:25.804Z,28.67
2019-02-21T01:28:54.348Z,27.63
2019-02-21T01:31:22.816Z,25.57
2019-02-21T01:33:51.299Z,29.00
2019-02-21T01:36:19.807Z,29.40
2019-02-21T01:38:48.260Z,30.93
2019-02-21T01:41:16.809Z,28.20
2019-02-21T01:43:45.310Z,25.90
2019-02-21T01:46:13.785Z,33.30
2019-02-21T01:48:42.234Z,26.50
2019-02-21T01:51:10.746Z,28.60
2019-02-21T01:53:39.203Z,33.17
2019-02-21T01:56:07.663Z,31.87
2019-02-21T01:58:36.178Z,36.83
2019-02-21T02:01:08.538Z,32.90
2019-02-21T02:03:34.899Z,30.77
2019-02-21T02:06:03.415Z,33.27
2019-02-21T02:08:32.388Z,26.10
2019-02-21T02:11:00.849Z,28.30
2019-02-21T02:13:29.347Z,34.53
2019-02-21T02:15:57.813Z,34.73
2019-02-21T02:18:26.266Z,37.53
2019-02-21T02:20:54.766Z,33.07
2019-02-21T02:23:23.245Z,31.80
2019-02-21T02:25:51.694Z,36.47
2019-02-21T02:28:20.208Z,35.33
2019-02-21T02:30:48.669Z,36.97
2019-02-21T02:33:17.130Z,37.93
2019-02-21T02:35:45.659Z,32.03
2019-02-21T02:38:14.118Z,33.00
2019-02-21T02:40:42.598Z,32.13
2019-02-21T02:43:11.212Z,31.23
2019-02-21T02:45:39.658Z,31.60
2019-02-21T02:48:08.115Z,37.03
2019-02-21T02:50:36.632Z,45.43
2019-02-21T02:53:05.309Z,38.37
2019-02-21T02:55:33.778Z,35.40
2019-02-21T02:58:02.291Z,57.10
2019-02-21T03:00:30.756Z,34.50
2019-02-21T03:02:59.236Z,41.03
2019-02-21T03:05:27.744Z,37.20
2019-02-21T03:07:56.207Z,37.90
2019-02-21T03:10:25.737Z,42.83
2019-02-21T03:12:54.252Z,39.70
2019-02-21T03:15:22.720Z,33.53
2019-02-21T03:17:51.181Z,40.67
2019-02-21T03:20:19.691Z,33.83
2019-02-21T03:22:48.157Z,35.00
2019-02-21T03:25:16.620Z,37.27
2019-02-21T03:27:45.106Z,44.70
2019-02-21T03:30:13.708Z,39.27
2019-02-21T03:32:42.197Z,33.60
2019-02-21T03:35:10.795Z,31.47
2019-02-21T03:37:39.239Z,43.60
2019-02-21T03:40:09.594Z,48.43
2019-02-21T03:42:38.163Z,42.53
2019-02-21T03:45:09.850Z,39.37
2019-02-21T03:47:38.301Z,42.73
2019-02-21T03:50:09.759Z,40.30
2019-02-21T03:52:38.204Z,37.47
2019-02-21T03:55:08.111Z,47.77
2019-02-21T03:57:36.676Z,45.70
2019-02-21T04:00:07.868Z,42.07
2019-02-21T04:02:36.332Z,47.37
2019-02-21T04:05:06.174Z,46.27
2019-02-21T04:07:34.646Z,38.10
2019-02-21T04:10:03.994Z,51.17
2019-02-21T04:12:32.612Z,41.03
2019-02-21T04:15:01.079Z,39.20
2019-02-21T04:17:29.553Z,50.70
2019-02-21T04:19:58.053Z,35.10
2019-02-21T04:22:26.530Z,39.60
2019-02-21T04:24:54.986Z,47.73
2019-02-21T04:27:23.593Z,46.37
2019-02-21T04:29:52.058Z,49.90
2019-02-21T04:32:20.524Z,38.97
2019-02-21T04:34:49.021Z,54.33
2019-02-21T04:37:20.188Z,43.40
2019-02-21T04:39:48.641Z,49.77
2019-02-21T04:42:17.167Z,39.43
2019-02-21T04:44:45.618Z,57.40
2019-02-21T04:47:14.096Z,47.73
2019-02-21T04:49:42.577Z,47.33
2019-02-21T04:52:11.036Z,46.47
2019-02-21T04:54:39.500Z,45.70
2019-02-21T04:57:08.661Z,49.80
2019-02-21T04:59:39.441Z,42.13
2019-02-21T05:02:07.898Z,45.43
2019-02-21T05:04:36.409Z,43.03
2019-02-21T05:07:04.875Z,51.07
2019-02-21T05:09:33.348Z,42.70
2019-02-21T05:12:01.882Z,52.80
2019-02-21T05:14:30.606Z,47.57
2019-02-21T05:17:00.667Z,44.83
2019-02-21T05:19:29.353Z,51.13
2019-02-21T05:21:57.821Z,49.60
2019-02-21T05:24:26.292Z,57.57
2019-02-21T05:26:56.419Z,66.07
2019-02-21T05:29:24.896Z,56.47
2019-02-21T05:31:57.653Z,52.30
2019-02-21T05:34:43.034Z,51.07
2019-02-21T05:37:31.181Z,54.97
2019-02-21T05:40:10.043Z,59.70
2019-02-21T05:42:42.921Z,54.27
2019-02-21T05:45:15.501Z,54.50
2019-02-21T05:47:48.057Z,59.57
2019-02-21T05:50:30.057Z,60.13
2019-02-21T05:53:16.056Z,56.10
2019-02-21T05:56:02.325Z,62.33
2019-02-21T05:58:35.085Z,58.27
2019-02-21T06:01:07.932Z,49.13
2019-02-21T06:03:44.075Z,58.13
2019-02-21T06:06:17.124Z,57.37
2019-02-21T06:08:51.710Z,56.20
2019-02-21T06:11:21.829Z,64.20
2019-02-21T06:13:53.738Z,66.93
2019-02-21T06:16:33.130Z,64.30
2019-02-21T06:19:10.713Z,61.70
2019-02-21T06:21:47.854Z,68.23
2019-02-21T06:24:20.636Z,61.53
2019-02-21T06:26:50.789Z,60.70
2019-02-21T06:29:22.563Z,73.43
2019-02-21T06:31:51.221Z,63.90
2019-02-21T06:34:22.839Z,65.63
2019-02-21T06:36:51.385Z,66.57
2019-02-21T06:39:19.850Z,59.00
2019-02-21T06:41:58.699Z,64.13
2019-02-21T06:44:18.563Z,59.00
2019-02-21T06:46:47.042Z,59.10
2019-02-21T06:49:15.555Z,74.33
2019-02-21T06:51:44.033Z,67.30
2019-02-21T06:54:12.498Z,63.27
2019-02-21T06:56:41.054Z,57.30
2019-02-21T06:59:13.534Z,70.17
2019-02-21T07:01:40.796Z,65.67
2019-02-21T07:04:09.284Z,68.80
2019-02-21T07:06:39.294Z,63.57
2019-02-21T07:09:07.911Z,66.00
2019-02-21T07:11:36.405Z,77.17
2019-02-21T07:14:04.877Z,66.87
2019-02-21T07:16:33.329Z,77.40
2019-02-21T07:19:02.320Z,68.50
2019-02-21T07:21:30.799Z,75.10
2019-02-21T07:24:07.918Z,65.50
2019-02-21T07:26:36.419Z,72.70
2019-02-21T07:29:04.877Z,59.43
2019-02-21T07:31:33.332Z,63.43
2019-02-21T07:34:02.081Z,68.70
2019-02-21T07:36:30.548Z,61.27
2019-02-21T07:39:13.837Z,62.07
2019-02-21T07:41:29.221Z,62.10
2019-02-21T07:43:57.684Z,69.27
2019-02-21T07:46:26.417Z,68.93
2019-02-21T07:48:54.918Z,70.70
2019-02-21T07:51:23.379Z,60.73
2019-02-21T07:53:51.835Z,67.37
2019-02-21T07:56:20.337Z,68.27
2019-02-21T07:58:48.790Z,69.17
2019-02-21T08:01:17.662Z,65.67
2019-02-21T08:03:48.551Z,67.60
2019-02-21T08:06:16.431Z,72.03
2019-02-21T08:08:45.184Z,70.63
2019-02-21T08:11:13.761Z,66.50
2019-02-21T08:13:42.290Z,68.50
2019-02-21T08:16:12.475Z,74.73
2019-02-21T08:18:41.126Z,68.00
2019-02-21T08:21:10.697Z,71.13
2019-02-21T08:23:49.665Z,57.90
2019-02-21T08:26:09.441Z,70.30
2019-02-21T08:28:37.922Z,88.40
2019-02-21T08:31:06.449Z,74.07
2019-02-21T08:33:42.152Z,67.67
2019-02-21T08:36:10.613Z,68.13
2019-02-21T08:38:39.076Z,91.47
2019-02-21T08:41:07.576Z,65.17
2019-02-21T08:43:37.284Z,67.27
2019-02-21T08:46:05.909Z,65.10
2019-02-21T08:48:34.439Z,68.33
2019-02-21T08:51:02.940Z,58.87
2019-02-21T08:53:31.414Z,66.23
2019-02-21T08:56:00.056Z,60.27
2019-02-21T08:58:28.524Z,64.60
2019-02-21T09:00:57.008Z,66.40
2019-02-21T09:03:25.517Z,65.93
2019-02-21T09:05:53.969Z,72.50
2019-02-21T09:08:32.762Z,68.83
2019-02-21T09:10:52.658Z,68.13
2019-02-21T09:13:23.740Z,64.03
2019-02-21T09:15:51.512Z,60.83
2019-02-21T09:18:20.030Z,76.63
2019-02-21T09:20:48.491Z,57.60
2019-02-21T09:23:17.090Z,63.27
2019-02-21T09:25:45.584Z,68.57
2019-02-21T09:28:15.789Z,58.07
2019-02-21T09:30:44.231Z,65.30
2019-02-21T09:33:17.420Z,69.17
2019-02-21T09:35:42.908Z,61.07
2019-02-21T09:38:13.156Z,59.40
2019-02-21T09:40:42.799Z,54.93
2019-02-21T09:43:11.536Z,54.60
2019-02-21T09:45:42.190Z,62.03
2019-02-21T09:48:12.015Z,54.43
2019-02-21T09:50:40.388Z,65.90
2019-02-21T09:53:08.838Z,65.50
2019-02-21T09:55:37.395Z,56.93
2019-02-21T09:58:05.869Z,66.60
2019-02-21T10:00:35.961Z,53.07
2019-02-21T10:03:04.614Z,52.23
2019-02-21T10:05:33.072Z,58.20
2019-02-21T10:08:01.552Z,54.03
2019-02-21T10:10:30.053Z,67.50
2019-02-21T10:12:58.519Z,61.27
2019-02-21T10:15:26.992Z,50.93
2019-02-21T10:17:55.495Z,62.57
2019-02-21T10:20:23.965Z,58.07
2019-02-21T10:22:52.429Z,59.63
2019-02-21T10:25:24.974Z,61.23
2019-02-21T10:27:53.439Z,66.93
2019-02-21T10:30:23.360Z,57.90
2019-02-21T10:32:51.857Z,47.20
2019-02-21T10:35:20.398Z,53.30
2019-02-21T10:37:48.888Z,51.90
2019-02-21T10:40:17.989Z,53.87
2019-02-21T10:42:46.468Z,45.57
2019-02-21T10:45:16.762Z,49.67
2019-02-21T10:47:45.351Z,50.40
2019-02-21T10:50:17.001Z,52.87
2019-02-21T10:52:45.470Z,50.47
2019-02-21T10:55:14.159Z,44.70
2019-02-21T10:57:45.189Z,48.70
2019-02-21T11:00:18.690Z,53.63
2019-02-21T11:02:47.160Z,41.10
2019-02-21T11:05:15.645Z,43.30
2019-02-21T11:07:44.143Z,48.80
2019-02-21T11:10:19.219Z,53.70
2019-02-21T11:12:47.871Z,44.90
2019-02-21T11:15:21.368Z,47.23
2019-02-21T11:17:49.844Z,50.63
2019-02-21T11:20:19.248Z,47.90
2019-02-21T11:22:47.760Z,45.40
2019-02-21T11:25:16.215Z,49.83
2019-02-21T11:27:45.714Z,53.40
2019-02-21T11:30:16.529Z,48.03
2019-02-21T11:32:45.011Z,49.30
2019-02-21T11:35:13.951Z,45.10
2019-02-21T11:37:46.604Z,49.13
2019-02-21T11:40:17.156Z,46.60
2019-02-21T11:42:46.355Z,41.37
2019-02-21T11:45:18.360Z,46.53
2019-02-21T11:47:48.369Z,49.50
2019-02-21T11:50:18.289Z,46.83
2019-02-21T11:52:46.859Z,47.57
2019-02-21T11:55:23.615Z,49.73
2019-02-21T11:57:52.100Z,47.63
2019-02-21T12:00:23.280Z,44.43
2019-02-21T12:02:51.778Z,52.33
2019-02-21T12:05:30.370Z,48.20
2019-02-21T12:07:50.553Z,47.37
2019-02-21T12:10:19.093Z,47.03
2019-02-21T12:12:47.579Z,49.77
2019-02-21T12:15:16.707Z,43.73
2019-02-21T12:17:45.182Z,54.77
2019-02-21T12:20:15.434Z,43.93
2019-02-21T12:22:43.960Z,38.70
2019-02-21T12:25:17.422Z,40.90
2019-02-21T12:27:45.890Z,38.20
2019-02-21T12:30:17.365Z,35.20
2019-02-21T12:32:45.961Z,50.37
2019-02-21T12:35:14.598Z,45.40
2019-02-21T12:37:43.109Z,37.60
2019-02-21T12:40:14.295Z,52.10
2019-02-21T12:42:42.733Z,45.73
2019-02-21T12:45:16.740Z,38.90
2019-02-21T12:47:50.785Z,48.70
2019-02-21T12:50:15.542Z,37.10
2019-02-21T12:52:44.099Z,48.50
2019-02-21T12:55:12.760Z,40.50
2019-02-21T12:57:41.231Z,42.43
2019-02-21T13:00:12.510Z,45.30
2019-02-21T13:02:41.000Z,49.47
2019-02-21T13:05:09.480Z,41.30
2019-02-21T13:07:38.021Z,49.33
2019-02-21T13:10:12.095Z,47.30
2019-02-21T13:12:40.583Z,50.20
2019-02-21T13:15:11.528Z,50.87
2019-02-21T13:17:40.032Z,45.47
2019-02-21T13:20:11.288Z,45.23
2019-02-21T13:22:41.357Z,56.73
2019-02-21T13:25:15.165Z,46.80
2019-02-21T13:27:43.672Z,56.63
2019-02-21T13:30:16.733Z,50.90
2019-02-21T13:32:45.932Z,45.93
2019-02-21T13:35:14.554Z,39.40
2019-02-21T13:37:43.068Z,45.80
2019-02-21T13:40:14.480Z,62.47
2019-02-21T13:42:42.958Z,42.93
2019-02-21T13:45:13.498Z,46.57
2019-02-21T13:47:41.954Z,43.13
2019-02-21T13:50:13.235Z,48.80
2019-02-21T13:52:41.747Z,38.57
2019-02-21T13:55:10.305Z,43.93
2019-02-21T13:57:38.788Z,54.83
2019-02-21T14:00:10.557Z,45.87
2019-02-21T14:02:39.076Z,50.63
2019-02-21T14:05:07.810Z,43.70
2019-02-21T14:07:37.371Z,43.80
2019-02-21T14:10:11.296Z,42.77
2019-02-21T14:12:39.943Z,43.57
2019-02-21T14:15:11.629Z,42.37
2019-02-21T14:17:40.098Z,51.87
2019-02-21T14:20:09.244Z,45.10
2019-02-21T14:22:37.746Z,40.33
2019-02-21T14:25:08.960Z,49.03
2019-02-21T14:27:37.433Z,49.20
2019-02-21T14:30:09.071Z,43.77
2019-02-21T14:32:37.542Z,53.10
2019-02-21T14:35:09.158Z,54.73
2019-02-21T14:37:37.694Z,71.10
2019-02-21T14:40:09.099Z,45.23
2019-02-21T14:42:37.565Z,48.63
2019-02-21T14:45:12.152Z,44.43
2019-02-21T14:47:39.772Z,39.63
2019-02-21T14:50:10.477Z,55.57
2019-02-21T14:52:38.976Z,56.13
2019-02-21T14:55:13.737Z,60.63
2019-02-21T14:57:42.230Z,65.77
2019-02-21T15:00:19.259Z,76.30
2019-02-21T15:02:47.723Z,71.70
2019-02-21T15:05:16.187Z,48.13
2019-02-21T15:07:44.722Z,58.13
2019-02-21T15:10:13.357Z,87.53
2019-02-21T15:12:43.445Z,57.80
2019-02-21T15:15:27.702Z,60.30
2019-02-21T15:18:06.964Z,56.70
2019-02-21T15:20:36.282Z,65.23
2019-02-21T15:22:56.871Z,60.80
2019-02-21T15:25:25.907Z,55.17
2019-02-21T15:27:54.554Z,58.00
2019-02-21T15:30:25.998Z,59.23
2019-02-21T15:32:54.587Z,63.13
2019-02-21T15:35:23.058Z,57.80
2019-02-21T15:37:51.925Z,61.00
2019-02-21T15:40:20.488Z,59.87
2019-02-21T15:42:49.062Z,66.13
2019-02-21T15:45:26.502Z,53.17
2019-02-21T15:47:55.024Z,58.13
2019-02-21T15:50:26.222Z,72.93
2019-02-21T15:52:56.356Z,51.90
2019-02-21T15:55:24.824Z,64.33
2019-02-21T15:58:03.285Z,55.93
2019-02-21T16:00:24.567Z,68.63
2019-02-21T16:02:53.037Z,61.57
2019-02-21T16:05:21.500Z,63.53
2019-02-21T16:07:49.990Z,60.43
2019-02-21T16:10:21.646Z,65.43
2019-02-21T16:12:50.962Z,61.60
2019-02-21T16:15:19.749Z,61.63
2019-02-21T16:17:48.262Z,63.70
2019-02-21T16:20:18.333Z,68.93
2019-02-21T16:22:46.829Z,66.27
2019-02-21T16:25:18.068Z,56.47
2019-02-21T16:27:46.525Z,64.63
2019-02-21T16:30:15.307Z,67.97
2019-02-21T16:32:43.800Z,57.70
2019-02-21T16:35:13.899Z,65.63
2019-02-21T16:37:42.400Z,69.33
2019-02-21T16:40:17.076Z,74.20
2019-02-21T16:42:45.545Z,76.27
2019-02-21T16:45:15.972Z,92.73
2019-02-21T16:47:44.519Z,57.67
2019-02-21T16:50:14.324Z,58.80
2019-02-21T16:52:43.013Z,53.57
2019-02-21T16:55:19.345Z,68.40
2019-02-21T16:57:47.848Z,72.90
2019-02-21T17:00:20.428Z,57.73
2019-02-21T17:02:49.041Z,64.53
2019-02-21T17:05:17.646Z,68.03
2019-02-21T17:07:46.096Z,60.47
2019-02-21T17:10:15.814Z,59.60
2019-02-21T17:12:44.312Z,65.57
2019-02-21T17:15:14.899Z,67.93
2019-02-21T17:17:43.499Z,56.17
2019-02-21T17:20:17.360Z,57.13
2019-02-21T17:22:45.816Z,82.17
2019-02-21T17:25:15.421Z,64.53
2019-02-21T17:27:47.754Z,66.33
2019-02-21T17:30:17.355Z,56.30
2019-02-21T17:32:45.876Z,70.53
2019-02-21T17:35:14.798Z,75.30
2019-02-21T17:37:43.327Z,56.57
2019-02-21T17:40:14.749Z,67.27
2019-02-21T17:42:43.596Z,60.37
2019-02-21T17:45:13.384Z,61.10
2019-02-21T17:47:41.882Z,52.50
2019-02-21T17:50:12.422Z,67.13
2019-02-21T17:52:40.873Z,61.67
2019-02-21T17:55:10.899Z,62.37
2019-02-21T17:57:39.457Z,88.13
2019-02-21T18:00:11.099Z,62.37
2019-02-21T18:02:39.546Z,69.87
2019-02-21T18:05:09.689Z,73.80
2019-02-21T18:07:38.152Z,69.80
2019-02-21T18:10:10.046Z,66.30
2019-02-21T18:12:38.565Z,63.83
2019-02-21T18:15:09.200Z,56.50
2019-02-21T18:17:37.677Z,67.17
2019-02-21T18:20:08.812Z,65.03
2019-02-21T18:22:37.502Z,61.20
2019-02-21T18:25:11.995Z,69.87
2019-02-21T18:27:40.496Z,57.73
2019-02-21T18:30:16.794Z,46.80
2019-02-21T18:32:45.260Z,57.43
2019-02-21T18:35:13.857Z,54.97
2019-02-21T18:37:47.494Z,48.90
2019-02-21T18:40:20.633Z,59.33
2019-02-21T18:42:48.247Z,39.93
2019-02-21T18:45:17.722Z,37.80
2019-02-21T18:47:46.240Z,42.00
2019-02-21T18:50:15.167Z,36.50
2019-02-21T18:52:43.730Z,40.43
2019-02-21T18:55:12.419Z,46.63
2019-02-21T18:57:40.876Z,44.27
2019-02-21T19:00:14.765Z,47.23
2019-02-21T19:02:43.284Z,39.27
2019-02-21T19:05:11.730Z,40.30
2019-02-21T19:07:40.186Z,42.50
2019-02-21T19:10:20.772Z,41.40
2019-02-21T19:12:49.231Z,48.80
2019-02-21T19:15:21.391Z,39.43
2019-02-21T19:17:49.961Z,39.60
2019-02-21T19:20:20.392Z,47.20
2019-02-21T19:22:48.927Z,39.00
2019-02-21T19:25:17.427Z,38.47
2019-02-21T19:27:45.888Z,46.03
2019-02-21T19:30:17.527Z,40.87
2019-02-21T19:32:46.037Z,34.23
2019-02-21T19:35:14.509Z,35.07
2019-02-21T19:37:47.731Z,30.80
2019-02-21T19:40:16.419Z,42.07
2019-02-21T19:42:44.885Z,31.23
2019-02-21T19:45:13.341Z,34.07
2019-02-21T19:47:42.024Z,32.03
2019-02-21T19:50:10.564Z,36.47
2019-02-21T19:52:39.025Z,25.93
2019-02-21T19:55:09.680Z,37.00
2019-02-21T19:57:38.130Z,31.10
2019-02-21T20:00:16.415Z,26.97
2019-02-21T20:02:44.881Z,33.10
2019-02-21T20:05:13.338Z,38.63
2019-02-21T20:07:41.819Z,24.87
2019-02-21T20:10:10.343Z,25.73
2019-02-21T20:12:47.898Z,35.30
2019-02-21T20:15:16.511Z,27.00
2019-02-21T20:17:44.973Z,22.57
2019-02-21T20:20:21.872Z,22.43
2019-02-21T20:22:50.336Z,23.13
2019-02-21T20:25:18.799Z,31.80
2019-02-21T20:27:47.467Z,26.93
2019-02-21T20:30:17.191Z,27.33
2019-02-21T20:32:45.659Z,22.93
2019-02-21T20:35:14.168Z,25.73
2019-02-21T20:37:42.665Z,34.47
2019-02-21T20:40:12.272Z,27.80
2019-02-21T20:42:41.594Z,33.20
2019-02-21T20:45:13.924Z,28.83
2019-02-21T20:47:42.377Z,26.87
2019-02-21T20:50:12.476Z,31.80
2019-02-21T20:52:43.871Z,34.33
2019-02-21T20:55:12.520Z,30.47
2019-02-21T20:57:41.063Z,29.33
2019-02-21T21:00:14.872Z,17.93
2019-02-21T21:02:43.473Z,26.17
2019-02-21T21:05:12.060Z,28.07
2019-02-21T21:07:40.509Z,17.50
2019-02-21T21:10:16.911Z,17.47
2019-02-21T21:12:45.440Z,23.70
2019-02-21T21:15:14.747Z,22.30
2019-02-21T21:17:43.314Z,25.13
2019-02-21T21:20:16.979Z,24.07
2019-02-21T21:22:43.805Z,26.20
2019-02-21T21:25:15.806Z,32.03
2019-02-21T21:27:44.272Z,46.73
2019-02-21T21:30:17.667Z,35.10
2019-02-21T21:32:46.178Z,44.13
2019-02-21T21:35:14.654Z,38.23
2019-02-21T21:37:43.179Z,39.37
2019-02-21T21:40:14.503Z,37.33
2019-02-21T21:42:42.975Z,34.97
2019-02-21T21:45:14.369Z,34.60
2019-02-21T21:47:42.859Z,36.87
2019-02-21T21:50:13.966Z,36.53
2019-02-21T21:52:43.868Z,30.07
2019-02-21T21:55:12.360Z,41.00
2019-02-21T21:57:40.832Z,38.63
2019-02-21T22:00:17.895Z,28.97
2019-02-21T22:02:45.469Z,30.03
2019-02-21T22:05:13.927Z,29.90
2019-02-21T22:07:42.377Z,23.33
2019-02-21T22:10:12.715Z,29.13
2019-02-21T22:12:41.176Z,27.90
2019-02-21T22:15:12.739Z,26.40
2019-02-21T22:17:42.185Z,20.10
2019-02-21T22:20:10.944Z,20.17
2019-02-21T22:22:39.399Z,17.20
2019-02-21T22:25:10.440Z,18.90
2019-02-21T22:27:38.915Z,18.43
2019-02-21T22:30:16.462Z,13.40
2019-02-21T22:32:44.929Z,17.60
2019-02-21T22:35:13.390Z,19.10
2019-02-21T22:37:41.872Z,17.03
2019-02-21T22:40:12.766Z,17.57
2019-02-21T22:42:41.258Z,16.23
2019-02-21T22:45:10.377Z,19.87
2019-02-21T22:47:38.849Z,15.13
2019-02-21T22:50:19.091Z,18.03
2019-02-21T22:52:47.589Z,23.17
2019-02-21T22:55:16.394Z,20.93
2019-02-21T22:57:44.876Z,18.33
2019-02-21T23:00:54.392Z,22.13
2019-02-21T23:03:25.692Z,21.17
2019-02-21T23:06:12.669Z,16.53
2019-02-21T23:08:45.130Z,16.97
2019-02-21T23:11:13.749Z,14.90
2019-02-21T23:13:42.208Z,15.37
2019-02-21T23:16:10.698Z,12.63
2019-02-21T23:18:39.234Z,19.53
2019-02-21T23:21:07.698Z,8.87
2019-02-21T23:23:36.193Z,13.23
2019-02-21T23:26:04.658Z,14.90
2019-02-21T23:28:33.126Z,17.40
2019-02-21T23:31:01.620Z,20.70
2019-02-21T23:33:31.436Z,19.47
2019-02-21T23:36:00.076Z,14.50
2019-02-21T23:38:28.559Z,18.00
2019-02-21T23:40:57.031Z,22.07
2019-02-21T23:43:25.477Z,17.83
2019-02-21T23:45:53.991Z,19.77
2019-02-21T23:48:22.447Z,15.70
2019-02-21T23:50:50.919Z,22.30
2019-02-21T23:53:19.418Z,20.73
2019-02-21T23:55:48.050Z,14.53
2019-02-21T23:58:16.526Z,27.43
